Time;durP1;ratioP1;P1;durP2;ratioP2;P2;SDS_P1;SDS_P2;PMS_P1;PMS_P2;Temp;Humidity;BMP_temperature;BMP_pressure;BME280_temperature;BME280_humidity;BME280_pressure;Samples;Min_cycle;Max_cycle;Signal;HPM_P1;HPM_P2
2023/09/20 00:01:19;;;;;;;6.65;2.00;;;29.80;90.90;;;;;;5043042;28;20197;-73
2023/09/20 00:03:52;;;;;;;5.38;2.15;;;29.90;91.10;;;;;;5035877;28;20300;-75
2023/09/20 00:06:23;;;;;;;4.95;2.50;;;30.00;90.80;;;;;;5039754;28;20633;-74
2023/09/20 00:08:53;;;;;;;4.90;1.95;;;30.00;90.20;;;;;;5051034;28;20189;-74
2023/09/20 00:11:24;;;;;;;4.55;2.20;;;30.20;90.40;;;;;;5045624;28;20206;-76
2023/09/20 00:13:57;;;;;;;8.48;2.10;;;30.30;90.40;;;;;;5043270;28;20277;-75
2023/09/20 00:16:28;;;;;;;4.55;2.03;;;30.30;90.00;;;;;;5040771;28;20206;-74
2023/09/20 00:19:01;;;;;;;4.53;2.00;;;30.40;89.70;;;;;;5041648;28;20224;-73
2023/09/20 00:21:32;;;;;;;4.05;1.80;;;30.50;89.90;;;;;;5036659;28;20189;-74
2023/09/20 00:24:04;;;;;;;4.22;1.88;;;30.60;89.20;;;;;;5036330;28;20997;-76
2023/09/20 00:26:35;;;;;;;3.78;2.20;;;30.70;88.80;;;;;;5048630;28;20205;-74
2023/09/20 00:29:07;;;;;;;2.95;1.95;;;30.80;88.60;;;;;;5047126;28;20210;-73
2023/09/20 00:31:38;;;;;;;5.05;2.10;;;30.90;88.90;;;;;;5052916;28;20186;-75
2023/09/20 00:34:10;;;;;;;2.40;2.00;;;31.00;88.60;;;;;;5051690;28;20194;-73
2023/09/20 00:36:41;;;;;;;6.00;2.50;;;31.00;87.70;;;;;;5042424;28;20204;-74
2023/09/20 00:39:13;;;;;;;3.42;2.20;;;31.10;87.10;;;;;;5051821;28;20649;-75
2023/09/20 00:41:45;;;;;;;12.77;2.40;;;31.20;87.60;;;;;;5049786;28;20553;-73
2023/09/20 00:44:15;;;;;;;7.47;2.35;;;31.40;86.00;;;;;;5032874;28;20309;-74
2023/09/20 00:46:46;;;;;;;5.75;2.38;;;31.40;84.80;;;;;;5034234;28;20201;-75
2023/09/20 00:49:19;;;;;;;7.38;2.28;;;31.40;84.70;;;;;;5045123;28;20265;-73
2023/09/20 00:51:51;;;;;;;4.72;2.30;;;31.40;83.80;;;;;;5045245;28;20196;-74
2023/09/20 00:54:22;;;;;;;7.88;2.25;;;31.50;84.60;;;;;;5032703;28;20190;-74
2023/09/20 00:56:53;;;;;;;3.63;1.98;;;31.60;83.50;;;;;;5033148;28;20256;-75
2023/09/20 00:59:24;;;;;;;3.45;2.03;;;31.70;83.10;;;;;;5032679;28;20204;-74
2023/09/20 01:01:55;;;;;;;5.15;2.33;;;31.80;84.60;;;;;;5043554;28;20650;-74
2023/09/20 01:04:28;;;;;;;12.85;2.95;;;32.00;83.80;;;;;;5031973;28;20213;-76
2023/09/20 01:06:59;;;;;;;3.92;2.22;;;32.10;83.90;;;;;;5050617;28;20279;-73
2023/09/20 01:09:30;;;;;;;4.18;1.85;;;32.20;83.70;;;;;;5045851;28;20190;-76
2023/09/20 01:12:02;;;;;;;2.72;2.05;;;32.40;84.60;;;;;;5044426;28;20194;-78
2023/09/20 01:14:33;;;;;;;5.55;2.17;;;32.50;83.60;;;;;;5052575;28;20201;-77
2023/09/20 01:17:10;;;;;;;4.97;2.20;;;32.60;82.80;;;;;;5043399;28;20213;-73
2023/09/20 01:19:43;;;;;;;3.10;2.17;;;32.60;80.30;;;;;;5042773;28;20630;-77
2023/09/20 01:22:16;;;;;;;4.20;2.30;;;32.70;80.50;;;;;;5042899;28;20216;-74
2023/09/20 01:24:47;;;;;;;3.97;2.30;;;32.70;79.90;;;;;;5046876;28;20214;-73
2023/09/20 01:27:18;;;;;;;4.25;2.60;;;32.80;80.90;;;;;;5045568;28;20269;-77
2023/09/20 01:29:49;;;;;;;5.28;2.50;;;32.90;80.50;;;;;;5036103;28;20190;-75
2023/09/20 01:32:20;;;;;;;4.05;2.28;;;33.10;80.00;;;;;;5034816;28;20206;-77
2023/09/20 01:34:51;;;;;;;5.45;2.30;;;33.10;79.80;;;;;;5034341;28;20652;-75
2023/09/20 01:37:24;;;;;;;3.17;2.10;;;33.20;79.00;;;;;;5043426;28;20198;-79
2023/09/20 01:39:54;;;;;;;3.65;2.20;;;33.20;78.40;;;;;;5045789;28;20198;-77
2023/09/20 01:42:25;;;;;;;3.58;2.45;;;33.10;77.20;;;;;;5054111;28;20201;-74
2023/09/20 01:44:56;;;;;;;5.50;2.60;;;33.10;78.00;;;;;;5056501;28;20838;-75
2023/09/20 01:47:27;;;;;;;4.82;2.70;;;33.10;77.10;;;;;;5048866;28;20315;-73
2023/09/20 01:49:59;;;;;;;8.05;2.95;;;33.10;77.40;;;;;;5052159;28;20639;-71
2023/09/20 01:52:32;;;;;;;6.78;2.50;;;33.10;76.30;;;;;;5048470;28;20259;-71
2023/09/20 01:55:07;;;;;;;8.02;2.55;;;33.10;76.30;;;;;;5037159;28;20670;-74
2023/09/20 01:57:38;;;;;;;5.80;2.45;;;33.10;75.40;;;;;;5036199;28;20628;-80
2023/09/20 02:00:22;;;;;;;3.90;2.08;;;33.20;76.50;;;;;;5038191;28;20196;-80
2023/09/20 02:02:54;;;;;;;3.80;2.33;;;33.30;75.60;;;;;;5051692;28;20198;-82
2023/09/20 02:05:26;;;;;;;5.00;2.40;;;33.30;75.90;;;;;;5051976;28;20271;-79
2023/09/20 02:07:59;;;;;;;3.17;2.15;;;33.20;74.70;;;;;;5046265;28;20205;-78
2023/09/20 02:10:30;;;;;;;2.38;2.17;;;33.30;75.10;;;;;;5043512;28;20658;-74
2023/09/20 02:13:02;;;;;;;4.40;2.40;;;33.40;75.00;;;;;;5039270;28;20268;-78
2023/09/20 02:15:34;;;;;;;5.28;2.20;;;33.50;75.40;;;;;;5043873;28;20567;-75
2023/09/20 02:18:05;;;;;;;5.05;2.88;;;33.50;74.30;;;;;;5034458;28;20220;-76
2023/09/20 02:20:37;;;;;;;6.97;2.80;;;33.40;75.40;;;;;;5035112;28;20201;-73
2023/09/20 02:23:12;;;;;;;11.85;2.95;;;33.50;75.80;;;;;;5046522;28;20359;-72
2023/09/20 02:25:43;;;;;;;5.97;2.47;;;33.60;75.90;;;;;;5039991;28;20270;-72
2023/09/20 02:28:14;;;;;;;3.30;2.55;;;33.60;74.80;;;;;;5042982;28;20197;-75
2023/09/20 02:30:45;;;;;;;4.65;2.55;;;33.60;73.90;;;;;;5040040;28;20200;-72
2023/09/20 02:33:18;;;;;;;4.72;2.28;;;33.60;75.10;;;;;;5044193;28;20201;-78
2023/09/20 02:35:49;;;;;;;3.97;2.20;;;33.60;74.50;;;;;;5044809;28;20281;-74
2023/09/20 02:38:22;;;;;;;3.75;2.50;;;33.60;74.50;;;;;;5040904;28;20189;-71
2023/09/20 02:40:53;;;;;;;3.63;2.13;;;33.60;73.70;;;;;;5046450;28;20658;-72
2023/09/20 02:43:23;;;;;;;4.82;2.95;;;33.60;73.30;;;;;;5040608;28;20194;-72
2023/09/20 02:45:54;;;;;;;3.67;2.35;;;33.70;74.20;;;;;;5033155;28;20580;-74
2023/09/20 02:48:26;;;;;;;3.05;2.38;;;33.80;74.60;;;;;;5041823;28;20641;-71
2023/09/20 02:51:00;;;;;;;4.60;2.33;;;33.90;73.50;;;;;;5040825;28;20567;-73
2023/09/20 02:53:35;;;;;;;4.75;2.50;;;33.90;72.70;;;;;;5044519;28;20193;-72
2023/09/20 02:56:08;;;;;;;3.38;2.15;;;33.80;72.50;;;;;;5054083;28;20248;-72
2023/09/20 02:58:39;;;;;;;4.18;2.25;;;33.80;74.10;;;;;;5037437;28;20217;-73
2023/09/20 03:01:10;;;;;;;4.05;2.25;;;33.80;73.20;;;;;;5050445;28;20197;-72
2023/09/20 03:03:41;;;;;;;3.42;1.80;;;33.80;72.40;;;;;;5043238;28;20194;-77
2023/09/20 03:06:13;;;;;;;4.72;2.40;;;33.80;73.50;;;;;;5039355;28;20228;-77
2023/09/20 03:08:46;;;;;;;5.82;2.53;;;33.80;73.70;;;;;;5052747;28;20205;-76
2023/09/20 03:11:25;;;;;;;4.57;2.47;;;33.90;72.20;;;;;;5048832;28;20243;-72
2023/09/20 03:13:56;;;;;;;3.75;2.47;;;33.90;70.40;;;;;;5049648;28;20209;-72
2023/09/20 03:16:27;;;;;;;6.40;2.95;;;33.90;71.20;;;;;;5034290;28;20186;-72
2023/09/20 03:18:58;;;;;;;4.75;2.90;;;34.00;71.20;;;;;;5034072;28;20190;-72
2023/09/20 03:21:29;;;;;;;5.72;3.00;;;34.00;71.00;;;;;;5042615;28;20190;-72
2023/09/20 03:24:05;;;;;;;3.92;2.53;;;34.10;70.60;;;;;;5037807;28;20582;-72
2023/09/20 03:26:37;;;;;;;4.43;2.60;;;34.10;69.30;;;;;;5034303;28;20255;-72
2023/09/20 03:29:07;;;;;;;6.05;2.40;;;34.10;69.10;;;;;;5034072;28;20248;-72
2023/09/20 03:31:38;;;;;;;3.97;2.40;;;34.10;69.50;;;;;;5034823;28;20658;-73
2023/09/20 03:34:11;;;;;;;6.45;2.83;;;34.10;69.10;;;;;;5045950;28;20650;-75
2023/09/20 03:36:43;;;;;;;5.18;2.42;;;34.10;70.20;;;;;;5036100;28;20568;-76
2023/09/20 03:39:16;;;;;;;4.03;2.40;;;34.00;68.60;;;;;;5034216;28;20197;-80
2023/09/20 03:41:47;;;;;;;3.70;2.35;;;34.00;68.70;;;;;;5038549;28;20199;-78
2023/09/20 03:44:19;;;;;;;4.28;2.42;;;34.00;68.70;;;;;;5052318;28;20225;-80
2023/09/20 03:46:50;;;;;;;4.05;2.22;;;33.90;68.80;;;;;;5043536;28;20556;-73
2023/09/20 03:49:21;;;;;;;5.90;2.60;;;33.90;69.80;;;;;;5033911;28;20278;-72
2023/09/20 03:51:52;;;;;;;9.20;3.03;;;33.90;69.50;;;;;;5034027;28;20198;-71
2023/09/20 03:54:25;;;;;;;4.45;2.47;;;34.00;69.80;;;;;;5032877;28;20194;-71
2023/09/20 03:56:56;;;;;;;4.10;2.58;;;34.00;69.20;;;;;;5050707;28;20233;-71
2023/09/20 03:59:27;;;;;;;4.55;2.30;;;34.00;69.80;;;;;;5053462;28;20193;-72
2023/09/20 04:01:58;;;;;;;5.82;2.50;;;34.00;70.00;;;;;;5049104;28;20966;-76
2023/09/20 04:04:28;;;;;;;4.68;2.85;;;34.10;68.90;;;;;;5047617;28;20205;-72
2023/09/20 04:06:59;;;;;;;3.25;2.45;;;34.10;69.50;;;;;;5050807;28;20233;-72
2023/09/20 04:09:32;;;;;;;7.93;3.00;;;34.10;68.40;;;;;;5037240;28;20193;-74
2023/09/20 04:12:03;;;;;;;5.43;2.60;;;34.10;68.80;;;;;;5052016;28;20276;-72
2023/09/20 04:14:34;;;;;;;5.18;2.30;;;34.10;68.80;;;;;;5050833;28;20189;-73
2023/09/20 04:17:05;;;;;;;5.47;2.70;;;34.00;68.80;;;;;;5049739;28;20534;-80
2023/09/20 04:19:39;;;;;;;2.67;2.15;;;34.10;69.30;;;;;;5038143;28;20218;-75
2023/09/20 04:22:10;;;;;;;6.40;2.85;;;34.10;68.80;;;;;;5037726;28;20645;-72
2023/09/20 04:24:42;;;;;;;3.35;2.60;;;34.00;69.00;;;;;;5053047;28;20689;-71
2023/09/20 04:27:15;;;;;;;4.63;2.60;;;34.00;68.20;;;;;;5052410;28;20201;-72
2023/09/20 04:29:46;;;;;;;3.75;2.80;;;34.00;68.90;;;;;;5053054;28;20189;-73
2023/09/20 04:32:18;;;;;;;4.43;2.70;;;34.20;69.70;;;;;;5048385;28;20209;-73
2023/09/20 04:34:52;;;;;;;6.03;2.60;;;34.10;68.90;;;;;;5036193;28;20267;-71
2023/09/20 04:37:23;;;;;;;7.93;2.70;;;34.10;68.40;;;;;;5035842;28;20205;-71
2023/09/20 04:39:56;;;;;;;3.35;2.50;;;34.20;68.30;;;;;;5043660;28;20212;-72
2023/09/20 04:42:27;;;;;;;5.00;2.58;;;34.20;68.60;;;;;;5036353;28;20286;-72
2023/09/20 04:44:57;;;;;;;3.75;2.65;;;34.10;68.90;;;;;;5052785;28;20244;-71
2023/09/20 04:47:28;;;;;;;5.50;2.60;;;34.10;68.10;;;;;;5052858;28;20193;-79
2023/09/20 04:49:59;;;;;;;6.13;2.53;;;34.00;69.20;;;;;;5048159;28;20198;-73
2023/09/20 04:52:30;;;;;;;4.40;2.72;;;34.00;69.00;;;;;;5034650;28;20203;-72
2023/09/20 04:55:03;;;;;;;7.10;2.80;;;34.10;68.60;;;;;;5043608;28;20713;-71
2023/09/20 04:57:34;;;;;;;4.97;2.67;;;34.10;68.50;;;;;;5037726;28;20194;-72
2023/09/20 05:00:08;;;;;;;4.28;2.55;;;34.10;68.60;;;;;;5038560;28;20193;-75
2023/09/20 05:02:39;;;;;;;4.63;2.33;;;34.00;68.60;;;;;;5042353;28;20661;-73
2023/09/20 05:05:10;;;;;;;4.00;2.50;;;34.00;68.70;;;;;;5038803;28;20213;-73
2023/09/20 05:07:41;;;;;;;4.72;2.40;;;34.00;67.70;;;;;;5038959;28;20201;-73
2023/09/20 05:10:14;;;;;;;3.55;2.50;;;33.90;68.30;;;;;;5044099;28;20204;-75
2023/09/20 05:12:47;;;;;;;3.60;2.40;;;33.90;68.80;;;;;;5046758;28;20665;-77
2023/09/20 05:15:18;;;;;;;3.47;2.50;;;34.00;68.10;;;;;;5043392;28;20267;-74
2023/09/20 05:17:49;;;;;;;3.95;2.60;;;33.90;68.20;;;;;;5044878;28;20197;-77
2023/09/20 05:20:20;;;;;;;4.57;2.72;;;33.90;69.20;;;;;;5051144;28;20608;-73
2023/09/20 05:22:51;;;;;;;2.85;2.40;;;33.90;69.10;;;;;;5056305;28;20650;-73
2023/09/20 05:25:23;;;;;;;4.55;2.55;;;34.00;67.80;;;;;;5050475;28;20221;-73
2023/09/20 05:27:54;;;;;;;6.60;2.70;;;34.00;67.50;;;;;;5043547;28;20256;-75
2023/09/20 05:30:26;;;;;;;4.38;2.65;;;34.00;68.00;;;;;;5036801;28;20284;-71
2023/09/20 05:32:57;;;;;;;4.03;2.70;;;34.10;67.50;;;;;;5043673;28;20201;-73
2023/09/20 05:35:28;;;;;;;4.15;2.50;;;34.20;68.30;;;;;;5041630;28;20195;-74
2023/09/20 05:37:59;;;;;;;3.17;2.33;;;34.20;67.90;;;;;;5047282;28;20212;-73
2023/09/20 05:40:33;;;;;;;5.10;2.55;;;34.30;67.50;;;;;;5050112;28;20194;-75
2023/09/20 05:43:04;;;;;;;3.65;2.80;;;34.30;67.50;;;;;;5039436;28;20623;-76
2023/09/20 05:45:34;;;;;;;4.57;2.80;;;34.40;64.40;;;;;;5046533;28;20213;-77
2023/09/20 05:48:06;;;;;;;6.20;2.97;;;34.40;62.20;;;;;;5042151;28;20890;-78
2023/09/20 05:50:37;;;;;;;3.97;3.10;;;34.50;62.10;;;;;;5040172;28;20660;-74
2023/09/20 05:53:11;;;;;;;4.05;3.05;;;34.50;61.90;;;;;;5038005;28;20202;-74
2023/09/20 05:55:44;;;;;;;4.10;3.20;;;34.50;61.90;;;;;;5040644;28;20221;-73
2023/09/20 05:58:15;;;;;;;5.68;3.08;;;34.40;61.50;;;;;;5037468;28;20194;-73
2023/09/20 06:00:46;;;;;;;3.00;2.70;;;34.30;62.00;;;;;;5046133;28;20197;-71
2023/09/20 06:03:17;;;;;;;3.85;2.75;;;34.20;62.60;;;;;;5035916;28;20279;-71
2023/09/20 06:05:50;;;;;;;6.93;3.00;;;34.10;61.90;;;;;;5036362;28;20627;-76
2023/09/20 06:08:21;;;;;;;4.95;2.78;;;34.10;61.80;;;;;;5045892;28;20205;-75
2023/09/20 06:10:54;;;;;;;6.40;3.00;;;34.10;61.60;;;;;;5050745;28;20700;-74
2023/09/20 06:13:25;;;;;;;4.00;2.78;;;34.10;60.60;;;;;;5041976;28;20194;-72
2023/09/20 06:15:55;;;;;;;4.30;2.80;;;34.10;60.80;;;;;;5039971;28;20205;-72
2023/09/20 06:18:26;;;;;;;8.60;3.13;;;34.00;60.70;;;;;;5037646;28;20244;-73
2023/09/20 06:20:57;;;;;;;4.35;2.80;;;34.10;60.20;;;;;;5047794;28;20201;-74
2023/09/20 06:23:29;;;;;;;4.68;2.80;;;34.10;60.30;;;;;;5035326;28;20242;-76
2023/09/20 06:26:09;;;;;;;4.35;3.03;;;34.00;60.40;;;;;;5044278;28;20217;-75
2023/09/20 06:28:41;;;;;;;7.50;2.70;;;34.10;60.80;;;;;;5035526;28;20546;-75
2023/09/20 06:31:13;;;;;;;5.82;2.92;;;34.10;60.10;;;;;;5035841;28;20220;-73
2023/09/20 06:33:46;;;;;;;4.07;2.90;;;34.00;60.30;;;;;;5038582;28;20198;-73
2023/09/20 06:36:20;;;;;;;3.08;2.60;;;34.00;60.50;;;;;;5041964;28;20206;-72
2023/09/20 06:38:51;;;;;;;5.03;2.80;;;33.90;60.20;;;;;;5045931;28;20285;-75
2023/09/20 06:41:24;;;;;;;5.88;3.20;;;33.80;61.10;;;;;;5041166;28;20655;-77
2023/09/20 06:43:55;;;;;;;4.30;2.83;;;33.80;60.50;;;;;;5034253;28;20204;-72
2023/09/20 06:46:26;;;;;;;5.35;2.80;;;33.80;60.50;;;;;;5035403;28;20222;-74
2023/09/20 06:48:57;;;;;;;4.18;2.72;;;33.70;60.60;;;;;;5034847;28;20566;-74
2023/09/20 06:51:28;;;;;;;4.22;2.97;;;33.60;60.50;;;;;;5034503;28;20276;-74
2023/09/20 06:54:00;;;;;;;6.38;3.20;;;33.60;60.80;;;;;;5041473;28;20206;-77
2023/09/20 06:56:32;;;;;;;5.53;2.80;;;33.40;60.50;;;;;;5040583;28;20222;-73
2023/09/20 06:59:03;;;;;;;6.15;3.28;;;33.30;60.70;;;;;;5043148;28;20208;-73
2023/09/20 07:01:34;;;;;;;3.00;2.70;;;33.10;60.70;;;;;;5034347;28;20663;-73
2023/09/20 07:04:06;;;;;;;3.95;2.85;;;33.20;60.60;;;;;;5047765;28;20194;-73
2023/09/20 07:06:37;;;;;;;6.43;2.85;;;33.10;61.10;;;;;;5037565;28;20293;-80
2023/09/20 07:09:08;;;;;;;3.97;3.10;;;33.10;60.90;;;;;;5049706;28;20196;-81
2023/09/20 07:11:41;;;;;;;5.70;2.88;;;33.00;60.90;;;;;;5033531;28;20658;-75
2023/09/20 07:14:12;;;;;;;8.50;3.22;;;32.90;61.50;;;;;;5051057;28;20198;-72
2023/09/20 07:16:44;;;;;;;4.90;3.00;;;32.90;61.20;;;;;;5052054;28;20198;-71
2023/09/20 07:19:17;;;;;;;4.13;2.80;;;32.90;61.20;;;;;;5048973;28;20233;-72
2023/09/20 07:21:48;;;;;;;5.10;3.00;;;32.80;61.80;;;;;;5051600;28;20235;-72
2023/09/20 07:24:24;;;;;;;4.68;2.97;;;32.70;62.00;;;;;;5034001;28;20202;-73
2023/09/20 07:26:58;;;;;;;5.07;2.80;;;32.50;62.50;;;;;;5045161;28;20232;-75
2023/09/20 07:29:30;;;;;;;8.27;3.40;;;32.60;61.70;;;;;;5045870;28;20239;-78
2023/09/20 07:32:00;;;;;;;4.00;2.83;;;32.40;62.10;;;;;;5036495;28;20640;-75
2023/09/20 07:34:33;;;;;;;3.75;2.92;;;32.30;62.10;;;;;;5051993;28;20216;-77
2023/09/20 07:37:07;;;;;;;6.55;3.28;;;32.20;62.20;;;;;;5054204;28;20211;-79
2023/09/20 07:39:38;;;;;;;4.80;3.17;;;32.10;62.70;;;;;;5054059;28;20193;-79
2023/09/20 07:42:13;;;;;;;4.18;3.15;;;32.00;62.60;;;;;;5037927;28;20561;-77
2023/09/20 07:44:44;;;;;;;5.57;2.95;;;31.90;62.80;;;;;;5034289;28;20205;-77
2023/09/20 07:47:14;;;;;;;6.65;2.65;;;31.80;62.80;;;;;;5035411;28;20225;-72
2023/09/20 07:49:45;;;;;;;6.10;3.15;;;31.80;63.00;;;;;;5044457;28;20204;-73
2023/09/20 07:52:16;;;;;;;3.45;2.88;;;31.70;62.90;;;;;;5036628;28;20202;-77
2023/09/20 07:54:47;;;;;;;4.32;2.83;;;31.60;63.10;;;;;;5050870;28;20213;-73
2023/09/20 07:57:20;;;;;;;5.53;2.95;;;31.60;62.90;;;;;;5050716;28;20259;-73
2023/09/20 07:59:51;;;;;;;5.50;3.05;;;31.60;62.50;;;;;;5033888;28;20194;-76
2023/09/20 08:02:22;;;;;;;4.53;2.70;;;31.60;62.90;;;;;;5039188;28;20247;-73
2023/09/20 08:04:52;;;;;;;4.28;2.88;;;31.50;62.70;;;;;;5050044;28;20244;-72
2023/09/20 08:07:24;;;;;;;5.68;3.13;;;31.50;62.70;;;;;;5044872;28;20305;-71
2023/09/20 08:09:54;;;;;;;3.85;2.80;;;31.40;62.80;;;;;;5033684;28;20191;-74
2023/09/20 08:12:31;;;;;;;4.80;3.10;;;31.30;62.70;;;;;;5052125;28;20564;-74
2023/09/20 08:15:02;;;;;;;6.03;2.95;;;31.30;62.80;;;;;;5052025;28;20210;-74
2023/09/20 08:20:21;;;;;;;3.90;2.90;;;31.20;63.00;;;;;;5047014;28;20200;-71
2023/09/20 09:01:56;;;;;;;5.00;3.00;;;30.50;64.30;;;;;;5043708;28;20332;-73
2023/09/20 09:04:28;;;;;;;7.20;2.90;;;30.40;64.00;;;;;;5051090;28;20193;-72
2023/09/20 09:06:58;;;;;;;4.93;2.80;;;30.40;64.50;;;;;;5032871;28;20240;-72
2023/09/20 09:09:29;;;;;;;4.28;2.97;;;30.30;64.70;;;;;;5044968;28;20202;-71
2023/09/20 09:12:01;;;;;;;4.88;3.08;;;30.20;64.50;;;;;;5036021;28;20202;-72
2023/09/20 09:14:31;;;;;;;3.78;3.20;;;30.20;64.80;;;;;;5037951;28;20729;-74
2023/09/20 09:17:08;;;;;;;7.70;3.17;;;30.10;64.80;;;;;;5034579;28;20236;-73
2023/09/20 09:19:40;;;;;;;5.85;3.03;;;30.10;64.90;;;;;;5045629;28;20200;-71
2023/09/20 09:22:10;;;;;;;4.90;3.00;;;30.10;65.10;;;;;;5041208;28;20653;-71
2023/09/20 09:24:48;;;;;;;4.28;3.30;;;30.00;65.00;;;;;;5046544;28;20537;-72
2023/09/20 09:27:19;;;;;;;5.63;2.92;;;30.00;65.10;;;;;;5051384;28;20213;-71
2023/09/20 09:29:50;;;;;;;4.47;2.83;;;29.90;65.00;;;;;;5049735;28;20202;-71
2023/09/20 09:32:24;;;;;;;5.80;2.97;;;29.90;65.20;;;;;;5048619;28;20725;-72
2023/09/20 09:34:54;;;;;;;4.07;3.10;;;29.80;65.30;;;;;;5032450;28;20666;-72
2023/09/20 09:37:27;;;;;;;5.93;3.00;;;29.70;65.50;;;;;;5040185;28;20201;-71
2023/09/20 09:40:05;;;;;;;6.38;3.38;;;29.70;66.00;;;;;;5043308;28;20198;-71
2023/09/20 09:42:36;;;;;;;5.47;3.15;;;29.50;66.20;;;;;;5031570;28;20198;-72
2023/09/20 09:45:07;;;;;;;5.05;3.30;;;29.40;66.40;;;;;;5047326;28;20268;-77
2023/09/20 09:47:41;;;;;;;6.57;3.10;;;29.30;67.00;;;;;;5045822;28;20222;-77
2023/09/20 09:50:13;;;;;;;6.47;3.30;;;29.20;67.80;;;;;;5032609;28;20193;-77
2023/09/20 09:52:45;;;;;;;6.22;3.50;;;29.10;67.90;;;;;;5051818;28;20197;-77
2023/09/20 09:55:17;;;;;;;4.00;3.38;;;28.90;68.60;;;;;;5034576;28;20228;-77
2023/09/20 09:57:47;;;;;;;4.70;3.45;;;28.70;68.80;;;;;;5050124;28;20212;-72
2023/09/20 10:00:20;;;;;;;4.82;3.20;;;28.60;70.00;;;;;;5042634;28;20221;-71
2023/09/20 10:02:53;;;;;;;5.15;3.40;;;28.30;71.10;;;;;;5042104;28;20194;-72
2023/09/20 10:05:26;;;;;;;4.30;3.30;;;28.20;70.90;;;;;;5051779;28;20225;-72
2023/09/20 10:08:01;;;;;;;4.70;3.65;;;28.00;71.60;;;;;;5046286;28;20654;-72
2023/09/20 10:10:33;;;;;;;9.07;4.53;;;27.80;72.30;;;;;;5052205;28;20247;-72
2023/09/20 10:13:04;;;;;;;5.43;3.50;;;27.70;72.80;;;;;;5046512;28;20284;-78
2023/09/20 10:15:35;;;;;;;6.95;3.72;;;27.40;73.10;;;;;;5046923;28;20206;-76
2023/09/20 10:18:08;;;;;;;5.03;3.42;;;27.30;73.90;;;;;;5054190;28;20197;-77
2023/09/20 10:21:10;;;;;;;4.63;3.38;;;27.20;74.30;;;;;;5052069;28;20198;-72
2023/09/20 10:23:42;;;;;;;5.57;3.90;;;27.10;74.60;;;;;;5028980;28;20193;-73
2023/09/20 10:26:17;;;;;;;5.10;3.92;;;27.00;74.90;;;;;;5054163;28;20264;-73
2023/09/20 10:28:50;;;;;;;5.35;3.25;;;26.80;75.10;;;;;;5054561;28;20235;-72
2023/09/20 10:31:22;;;;;;;5.35;3.85;;;26.80;75.40;;;;;;5042957;28;20198;-72
2023/09/20 10:33:55;;;;;;;8.07;4.10;;;26.70;75.60;;;;;;5051749;28;20193;-72
2023/09/20 10:36:29;;;;;;;6.65;4.18;;;26.60;76.70;;;;;;5045242;28;20669;-76
2023/09/20 10:39:23;;;;;;;5.70;4.30;;;26.60;76.00;;;;;;5052845;28;20202;-73
2023/09/20 10:41:55;;;;;;;8.13;4.70;;;26.50;76.40;;;;;;5041239;28;20252;-73
2023/09/20 10:44:31;;;;;;;8.77;4.50;;;26.40;76.60;;;;;;5049169;28;20280;-77
2023/09/20 10:47:06;;;;;;;6.88;4.45;;;26.40;77.70;;;;;;5051928;28;20228;-72
2023/09/20 10:49:52;;;;;;;8.88;4.30;;;26.40;78.20;;;;;;5040293;28;20679;-73
2023/09/20 10:52:58;;;;;;;7.63;4.75;;;26.30;78.80;;;;;;5041087;28;20235;-72
2023/09/20 10:55:39;;;;;;;6.60;4.57;;;26.30;79.30;;;;;;5044864;28;20688;-73
2023/09/20 10:58:10;;;;;;;6.90;4.32;;;26.20;80.20;;;;;;5043415;28;20266;-72
2023/09/20 11:00:42;;;;;;;6.55;4.22;;;26.10;80.50;;;;;;5050380;28;20197;-71
2023/09/20 11:03:13;;;;;;;7.78;4.45;;;26.10;81.00;;;;;;5043351;28;20194;-72
2023/09/20 11:05:47;;;;;;;10.48;5.10;;;26.00;81.00;;;;;;5034304;28;20280;-72
2023/09/20 11:08:18;;;;;;;10.43;5.93;;;25.90;81.30;;;;;;5039499;28;20308;-72
2023/09/20 11:10:49;;;;;;;9.10;5.68;;;25.90;81.60;;;;;;5054043;28;20193;-73
2023/09/20 11:13:20;;;;;;;7.15;4.80;;;25.80;81.90;;;;;;5054550;28;20624;-72
2023/09/20 11:15:50;;;;;;;8.18;4.82;;;25.80;82.20;;;;;;5052279;28;20224;-72
2023/09/20 11:18:22;;;;;;;7.50;4.70;;;25.70;82.40;;;;;;5045977;28;20213;-73
2023/09/20 11:20:55;;;;;;;11.38;4.78;;;25.70;82.20;;;;;;5034644;28;20191;-72
2023/09/20 11:23:27;;;;;;;7.13;4.60;;;25.60;81.30;;;;;;5034823;28;20194;-72
2023/09/20 11:25:59;;;;;;;8.20;4.50;;;25.60;81.10;;;;;;5051541;28;20567;-72
2023/09/20 11:28:32;;;;;;;7.82;4.90;;;25.60;81.20;;;;;;5053297;28;20189;-72
2023/09/20 11:31:04;;;;;;;7.25;4.68;;;25.60;81.40;;;;;;5046233;28;20222;-73
2023/09/20 11:33:35;;;;;;;6.15;4.30;;;25.70;81.30;;;;;;5034868;28;20202;-72
2023/09/20 11:36:19;;;;;;;6.05;4.05;;;25.70;81.30;;;;;;5034227;28;20246;-72
2023/09/20 11:38:50;;;;;;;9.55;4.28;;;25.80;80.70;;;;;;5034202;28;20194;-72
2023/09/20 11:41:20;;;;;;;7.10;4.03;;;25.90;80.40;;;;;;5034097;28;20198;-72
2023/09/20 11:43:55;;;;;;;7.10;4.10;;;25.90;79.80;;;;;;5033984;28;20201;-73
2023/09/20 11:46:29;;;;;;;10.57;4.95;;;26.00;79.90;;;;;;5034028;28;20201;-73
2023/09/20 11:49:03;;;;;;;9.93;3.92;;;26.10;80.70;;;;;;5034046;28;20205;-73
2023/09/20 11:51:37;;;;;;;13.25;4.20;;;25.90;91.30;;;;;;5038855;28;20196;-74
2023/09/20 11:54:10;;;;;;;13.63;3.63;;;25.60;96.20;;;;;;5034620;28;20193;-72
2023/09/20 11:56:41;;;;;;;16.80;4.13;;;25.30;99.90;;;;;;5048346;28;20696;-74
2023/09/20 11:59:14;;;;;;;21.55;4.40;;;24.80;99.90;;;;;;5035692;28;20198;-73
2023/09/20 12:01:45;;;;;;;24.42;4.57;;;24.30;99.90;;;;;;5042841;28;20205;-73
2023/09/20 12:04:17;;;;;;;23.23;4.43;;;24.10;99.90;;;;;;5040248;28;20670;-72
2023/09/20 12:06:52;;;;;;;19.20;4.55;;;23.70;99.90;;;;;;5042475;28;20689;-72
2023/09/20 12:09:23;;;;;;;24.48;4.65;;;23.30;99.90;;;;;;5050010;28;20186;-73
2023/09/20 12:11:54;;;;;;;19.80;3.97;;;23.00;99.90;;;;;;5046542;28;20201;-73
2023/09/20 12:14:25;;;;;;;23.92;4.43;;;22.80;99.90;;;;;;5052436;28;20228;-71
2023/09/20 12:16:56;;;;;;;26.17;4.68;;;22.50;99.90;;;;;;5043293;28;20204;-72
2023/09/20 12:19:27;;;;;;;24.58;5.22;;;22.40;99.90;;;;;;5041590;28;20198;-74
2023/09/20 12:22:00;;;;;;;25.00;4.43;;;22.30;99.90;;;;;;5046803;28;20198;-74
2023/09/20 12:24:31;;;;;;;25.58;4.40;;;22.00;99.90;;;;;;5037399;28;20202;-74
2023/09/20 12:27:05;;;;;;;29.42;5.05;;;21.90;99.90;;;;;;5052403;28;20255;-73
2023/09/20 12:29:35;;;;;;;22.80;4.47;;;21.70;99.90;;;;;;5053424;28;20194;-77
2023/09/20 12:32:06;;;;;;;25.85;4.53;;;21.50;99.90;;;;;;5053389;28;20197;-75
2023/09/20 12:34:37;;;;;;;25.10;4.38;;;21.20;99.90;;;;;;5053443;28;20548;-74
2023/09/20 12:37:10;;;;;;;23.38;4.03;;;21.00;99.90;;;;;;5053107;28;20659;-75
2023/09/20 12:39:42;;;;;;;27.00;4.78;;;20.90;99.90;;;;;;5051129;28;20212;-74
2023/09/20 12:42:13;;;;;;;24.55;4.40;;;20.80;99.90;;;;;;5033327;28;20240;-74
2023/09/20 12:44:43;;;;;;;32.67;5.47;;;20.60;99.90;;;;;;5033263;28;20552;-75
2023/09/20 12:47:14;;;;;;;30.50;4.38;;;20.50;99.90;;;;;;5033169;28;20689;-76
2023/09/20 12:49:46;;;;;;;30.45;5.03;;;20.50;99.90;;;;;;5033269;28;20194;-75
2023/09/20 12:52:19;;;;;;;27.35;4.50;;;20.30;99.90;;;;;;5033092;28;20205;-74
2023/09/20 12:54:50;;;;;;;26.83;4.05;;;20.20;99.90;;;;;;5033059;28;20697;-74
2023/09/20 12:57:22;;;;;;;27.65;4.72;;;20.20;99.90;;;;;;5043006;28;20284;-74
2023/09/20 12:59:53;;;;;;;26.98;4.30;;;20.10;99.90;;;;;;5052712;28;20236;-75
2023/09/20 13:02:27;;;;;;;27.70;4.20;;;20.00;99.90;;;;;;5052582;28;20259;-75
2023/09/20 13:04:59;;;;;;;27.60;4.50;;;19.90;99.90;;;;;;5052679;28;20196;-76
2023/09/20 13:07:32;;;;;;;27.55;4.45;;;19.80;99.90;;;;;;5052981;28;20225;-75
2023/09/20 13:10:04;;;;;;;28.00;4.63;;;19.70;99.90;;;;;;5052358;28;20197;-76
2023/09/20 13:12:36;;;;;;;28.58;4.40;;;19.60;99.90;;;;;;5043061;28;20555;-74
2023/09/20 13:15:08;;;;;;;30.63;4.53;;;19.50;99.90;;;;;;5046077;28;20201;-75
2023/09/20 13:17:39;;;;;;;27.98;4.53;;;19.50;99.90;;;;;;5050900;28;21665;-75
2023/09/20 13:20:13;;;;;;;31.58;4.75;;;19.50;99.90;;;;;;5052885;28;20198;-75
2023/09/20 13:22:46;;;;;;;32.00;4.60;;;19.40;99.90;;;;;;5052843;28;20236;-75
2023/09/20 13:25:19;;;;;;;29.63;4.53;;;19.40;99.90;;;;;;5052531;28;20186;-73
2023/09/20 13:27:50;;;;;;;32.75;4.35;;;19.40;99.90;;;;;;5040468;28;20603;-74
2023/09/20 13:30:21;;;;;;;27.63;4.35;;;19.40;99.90;;;;;;5045533;28;20192;-76
2023/09/20 13:32:52;;;;;;;27.10;4.25;;;19.40;99.90;;;;;;5037496;28;20289;-74
2023/09/20 13:35:23;;;;;;;25.50;3.88;;;19.30;99.90;;;;;;5036839;28;20198;-74
2023/09/20 13:37:55;;;;;;;28.23;3.90;;;19.30;99.90;;;;;;5036408;28;20194;-75
2023/09/20 13:40:26;;;;;;;28.83;4.22;;;19.30;99.90;;;;;;5036526;28;20208;-74
2023/09/20 13:42:57;;;;;;;27.90;4.10;;;19.30;99.90;;;;;;5036500;28;20277;-74
2023/09/20 13:45:28;;;;;;;26.70;4.00;;;19.30;99.90;;;;;;5040028;28;20189;-75
2023/09/20 13:47:59;;;;;;;29.63;4.35;;;19.20;99.90;;;;;;5052143;28;20230;-74
2023/09/20 13:50:31;;;;;;;26.83;4.38;;;19.20;99.90;;;;;;5040672;28;20195;-75
2023/09/20 13:53:04;;;;;;;29.10;4.15;;;19.20;99.90;;;;;;5038989;28;20189;-76